Time;durP1;ratioP1;P1;durP2;ratioP2;P2;SDS_P1;SDS_P2;PMS_P1;PMS_P2;Temp;Humidity;BMP_temperature;BMP_pressure;BME280_temperature;BME280_humidity;BME280_pressure;Samples;Min_cycle;Max_cycle;Signal;HPM_P1;HPM_P2
2023/07/11 00:02:23;;;;;;;10.50;7.63;;;;;;;17.95;100.00;99601.16;5024507;28;20280;-56
2023/07/11 00:04:55;;;;;;;12.53;6.93;;;;;;;18.02;100.00;99603.34;5010746;28;20286;-61
2023/07/11 00:07:26;;;;;;;11.13;6.67;;;;;;;17.97;100.00;99592.19;5024459;28;20370;-60
2023/07/11 00:09:56;;;;;;;14.23;6.57;;;;;;;18.03;100.00;99617.41;5013724;28;20287;-58
2023/07/11 00:12:28;;;;;;;14.90;6.50;;;;;;;18.04;100.00;99621.75;5038273;28;20329;-57
2023/07/11 00:14:59;;;;;;;12.53;6.10;;;;;;;18.31;100.00;99622.78;5033361;28;21422;-60
2023/07/11 00:17:30;;;;;;;12.90;6.50;;;;;;;18.39;100.00;99630.28;5044208;28;20275;-59
2023/07/11 00:20:04;;;;;;;13.50;7.30;;;;;;;18.21;100.00;99636.66;5033443;28;20275;-61
2023/07/11 00:22:34;;;;;;;10.73;6.57;;;;;;;17.95;100.00;99631.06;5043489;28;20382;-57
2023/07/11 00:25:06;;;;;;;10.27;6.63;;;;;;;17.88;100.00;99645.56;5032976;28;20321;-60
2023/07/11 00:27:36;;;;;;;9.33;6.60;;;;;;;17.87;100.00;99643.84;5044319;28;20278;-61
2023/07/11 00:30:08;;;;;;;9.93;6.17;;;;;;;17.86;100.00;99636.88;5027266;28;20637;-61
2023/07/11 00:32:39;;;;;;;11.40;6.97;;;;;;;17.90;100.00;99627.84;5018096;28;20308;-60
2023/07/11 00:37:55;;;;;;;7.70;5.53;;;;;;;17.94;100.00;99649.66;5006037;28;20369;-61
2023/07/11 00:40:25;;;;;;;11.50;6.80;;;;;;;17.94;100.00;99645.22;5018947;28;20316;-62
2023/07/11 00:42:56;;;;;;;12.50;6.87;;;;;;;17.94;100.00;99636.44;5009490;28;20637;-61
2023/07/11 00:46:03;;;;;;;12.03;6.80;;;;;;;18.05;100.00;99647.28;5016334;28;20374;-61
2023/07/11 00:48:38;;;;;;;15.63;7.65;;;;;;;17.93;100.00;99634.75;5017938;28;20814;-61
2023/07/11 00:51:15;;;;;;;13.73;7.83;;;;;;;17.72;100.00;99602.41;5029072;28;20048;-58
2023/07/11 00:53:46;;;;;;;11.70;7.80;;;;;;;17.94;100.00;99631.16;5033078;28;20302;-59
2023/07/11 00:56:21;;;;;;;14.27;8.07;;;;;;;17.87;100.00;99622.72;5054004;28;20601;-61
2023/07/11 00:59:02;;;;;;;12.00;8.67;;;;;;;17.97;100.00;99630.97;5003626;28;20269;-60
2023/07/11 01:01:33;;;;;;;13.50;8.03;;;;;;;18.08;100.00;99626.78;5013077;28;20295;-63
2023/07/11 01:04:06;;;;;;;18.43;8.60;;;;;;;17.94;100.00;99591.50;5007334;28;20303;-63
2023/07/11 01:06:38;;;;;;;18.00;8.90;;;;;;;18.22;100.00;99627.75;5018778;28;20279;-63
2023/07/11 01:09:10;;;;;;;12.77;8.20;;;;;;;18.18;100.00;99624.47;5006119;28;20271;-59
2023/07/11 01:11:54;;;;;;;19.07;9.67;;;;;;;17.71;100.00;99550.53;5005422;28;20279;-60
2023/07/11 01:14:26;;;;;;;15.67;10.03;;;;;;;17.87;100.00;99585.72;5013191;28;20292;-60
2023/07/11 01:16:57;;;;;;;16.60;8.33;;;;;;;17.79;100.00;99594.03;5007989;28;20307;-62
2023/07/11 01:19:27;;;;;;;15.63;8.70;;;;;;;17.94;100.00;99624.06;5016612;28;20365;-63
2023/07/11 01:22:00;;;;;;;17.30;9.20;;;;;;;17.90;100.00;99619.91;5011591;28;21320;-62
2023/07/11 01:24:30;;;;;;;15.27;8.60;;;;;;;17.92;100.00;99614.53;5022082;28;20641;-64
2023/07/11 01:27:01;;;;;;;20.13;9.90;;;;;;;18.02;100.00;99600.72;5012083;28;20395;-65
2023/07/11 01:29:31;;;;;;;17.10;10.27;;;;;;;18.16;100.00;99601.69;5021087;28;20278;-63
2023/07/11 01:32:02;;;;;;;21.13;9.77;;;;;;;17.96;100.00;99574.63;5008727;28;20349;-60
2023/07/11 01:34:33;;;;;;;15.87;9.17;;;;;;;18.11;100.00;99586.94;5022159;28;20283;-60
2023/07/11 01:37:05;;;;;;;17.43;9.93;;;;;;;18.26;100.00;99592.28;5012357;28;20690;-62
2023/07/11 01:39:35;;;;;;;17.50;10.53;;;;;;;18.46;100.00;99594.59;5022826;28;20292;-61
2023/07/11 01:42:06;;;;;;;20.83;11.27;;;;;;;18.62;100.00;99585.72;5009560;28;20289;-63
2023/07/11 01:44:37;;;;;;;20.73;10.23;;;;;;;18.70;100.00;99576.41;5019640;28;20375;-63
2023/07/11 01:47:09;;;;;;;17.80;11.07;;;;;;;18.91;100.00;99587.47;5010563;28;20343;-63
2023/07/11 01:49:40;;;;;;;17.43;10.73;;;;;;;18.94;100.00;99571.41;5016686;28;20287;-63
2023/07/11 01:52:16;;;;;;;17.40;10.47;;;;;;;19.10;100.00;99559.88;5021859;28;20813;-63
2023/07/11 01:54:47;;;;;;;19.37;11.00;;;;;;;19.28;100.00;99566.66;5012125;28;20287;-61
2023/07/11 01:57:18;;;;;;;24.37;12.37;;;;;;;19.39;100.00;99590.69;5022369;28;20345;-60
2023/07/11 01:59:49;;;;;;;20.93;12.00;;;;;;;19.42;100.00;99604.66;5011936;28;20287;-62
2023/07/11 02:02:19;;;;;;;16.73;10.80;;;;;;;19.38;100.00;99588.97;5021639;28;20333;-62
2023/07/11 02:04:50;;;;;;;20.40;11.43;;;;;;;19.50;100.00;99597.09;5011344;28;20755;-60
2023/07/11 02:07:22;;;;;;;25.63;11.23;;;;;;;19.60;100.00;99587.59;5019619;28;20700;-62
2023/07/11 02:09:53;;;;;;;20.93;10.97;;;;;;;19.71;100.00;99590.41;4994537;28;20776;-62
2023/07/11 02:12:24;;;;;;;23.10;11.93;;;;;;;19.82;100.00;99595.88;5013463;28;20355;-62
2023/07/11 02:14:55;;;;;;;17.17;10.50;;;;;;;19.62;100.00;99575.09;5011183;28;20268;-62
2023/07/11 02:17:25;;;;;;;20.33;10.67;;;;;;;19.85;100.00;99586.88;5019211;28;20271;-63
2023/07/11 02:19:56;;;;;;;17.20;10.43;;;;;;;19.78;100.00;99594.38;5000767;28;20287;-60
2023/07/11 02:22:28;;;;;;;17.57;10.50;;;;;;;19.74;100.00;99590.22;5021082;28;20780;-62
2023/07/11 02:24:59;;;;;;;22.00;10.80;;;;;;;19.56;100.00;99596.69;5013747;28;20302;-61
2023/07/11 02:27:29;;;;;;;18.17;10.50;;;;;;;19.53;100.00;99594.25;5022011;28;20291;-58
2023/07/11 02:30:00;;;;;;;19.53;10.17;;;;;;;19.52;100.00;99592.53;5010638;28;20283;-61
2023/07/11 02:32:30;;;;;;;21.23;10.27;;;;;;;19.45;100.00;99593.88;5019868;28;20371;-60
2023/07/11 02:35:01;;;;;;;17.77;10.70;;;;;;;19.39;100.00;99593.34;5008440;28;20346;-61
2023/07/11 02:37:33;;;;;;;17.73;10.40;;;;;;;19.30;100.00;99585.97;5020644;28;20288;-61
2023/07/11 02:40:04;;;;;;;21.17;11.47;;;;;;;19.16;100.00;99591.25;5008766;28;20754;-59
2023/07/11 02:42:34;;;;;;;20.20;11.47;;;;;;;19.06;100.00;99598.09;5020405;28;20679;-61
2023/07/11 02:45:06;;;;;;;20.80;11.43;;;;;;;18.97;100.00;99583.63;5009059;28;20275;-61
2023/07/11 02:47:36;;;;;;;21.60;11.73;;;;;;;18.95;100.00;99581.06;5020648;28;20406;-61
2023/07/11 02:50:08;;;;;;;21.30;11.13;;;;;;;19.00;100.00;99582.59;5010594;28;20718;-62
2023/07/11 02:52:40;;;;;;;20.90;12.20;;;;;;;18.73;100.00;99533.03;5013160;28;20379;-62
2023/07/11 02:55:11;;;;;;;21.70;11.17;;;;;;;19.10;100.00;99583.72;5016153;28;20329;-62
2023/07/11 02:57:43;;;;;;;21.53;11.20;;;;;;;19.09;100.00;99582.00;5010847;28;20291;-59
2023/07/11 03:00:14;;;;;;;19.07;10.87;;;;;;;18.36;100.00;99477.06;5018927;28;20635;-60
2023/07/11 03:02:45;;;;;;;18.83;10.33;;;;;;;18.98;100.00;99584.47;5010212;28;20346;-62
2023/07/11 03:05:15;;;;;;;17.80;10.70;;;;;;;18.98;100.00;99589.78;5019912;28;20412;-61
2023/07/11 03:07:47;;;;;;;17.60;10.27;;;;;;;18.96;100.00;99593.34;5007852;28;20756;-61
2023/07/11 03:10:18;;;;;;;16.93;10.00;;;;;;;18.91;100.00;99590.13;5019813;28;20291;-61
2023/07/11 03:12:49;;;;;;;20.87;10.63;;;;;;;18.69;100.00;99557.97;5008328;28;20745;-61
2023/07/11 03:15:19;;;;;;;13.23;9.57;;;;;;;18.87;100.00;99578.06;5018654;28;20275;-58
2023/07/11 03:17:50;;;;;;;13.90;9.03;;;;;;;18.84;100.00;99574.72;5005744;28;20303;-60
2023/07/11 03:20:21;;;;;;;15.87;10.03;;;;;;;18.81;100.00;99575.75;5017207;28;20327;-60
2023/07/11 03:22:53;;;;;;;15.23;9.40;;;;;;;18.84;100.00;99574.72;5010153;28;20287;-62
2023/07/11 03:25:24;;;;;;;18.63;9.53;;;;;;;18.82;100.00;99572.19;5017710;28;20385;-60
2023/07/11 03:27:54;;;;;;;16.20;8.73;;;;;;;18.77;100.00;99576.91;5005179;28;20395;-62
2023/07/11 03:30:25;;;;;;;16.43;9.23;;;;;;;18.65;100.00;99567.03;5018408;28;20283;-62
2023/07/11 03:32:56;;;;;;;12.13;8.63;;;;;;;18.61;100.00;99565.53;4996290;28;20283;-61
2023/07/11 03:35:26;;;;;;;15.27;8.97;;;;;;;18.39;100.00;99550.09;5020030;28;20734;-62
2023/07/11 03:37:59;;;;;;;12.90;7.53;;;;;;;18.32;100.00;99560.16;5009364;28;20288;-62
2023/07/11 03:40:30;;;;;;;12.63;8.40;;;;;;;18.16;100.00;99548.81;5018772;28;20724;-62
2023/07/11 03:43:00;;;;;;;17.60;8.47;;;;;;;18.22;100.00;99559.00;5009199;28;20689;-58
2023/07/11 03:45:31;;;;;;;12.53;7.30;;;;;;;18.27;100.00;99556.94;5017676;28;20291;-58
2023/07/11 03:48:01;;;;;;;11.20;7.00;;;;;;;18.17;100.00;99566.38;5009052;28;20286;-64
2023/07/11 03:50:32;;;;;;;10.20;6.40;;;;;;;18.13;100.00;99564.88;5016505;28;20601;-63
2023/07/11 03:53:04;;;;;;;9.47;5.50;;;;;;;18.03;100.00;99570.69;5008548;28;20333;-62
2023/07/11 03:55:35;;;;;;;9.33;6.33;;;;;;;17.91;100.00;99566.09;5015202;28;20282;-62
2023/07/11 03:58:06;;;;;;;8.23;5.50;;;;;;;17.85;100.00;99561.19;5008216;28;20614;-62
2023/07/11 04:00:36;;;;;;;9.93;5.93;;;;;;;17.68;100.00;99533.91;5019020;28;20489;-60
2023/07/11 04:03:07;;;;;;;8.97;5.03;;;;;;;17.62;100.00;99539.53;5008101;28;20574;-59
2023/07/11 04:05:38;;;;;;;9.83;5.67;;;;;;;17.60;100.00;99544.06;5015320;28;20858;-63
2023/07/11 04:08:10;;;;;;;8.00;5.40;;;;;;;17.44;100.00;99535.28;5017966;28;20286;-62
2023/07/11 04:10:41;;;;;;;8.50;5.07;;;;;;;17.47;100.00;99540.38;5008536;28;20311;-59
2023/07/11 04:13:11;;;;;;;10.87;5.80;;;;;;;17.48;100.00;99542.09;5017567;28;20278;-59
2023/07/11 04:15:42;;;;;;;10.87;5.37;;;;;;;17.37;100.00;99533.91;5008302;28;20763;-61
2023/07/11 04:18:12;;;;;;;7.97;4.90;;;;;;;17.30;100.00;99537.84;5016836;28;20706;-61
2023/07/11 04:20:43;;;;;;;8.43;4.43;;;;;;;17.24;100.00;99529.31;5008510;28;20275;-62
2023/07/11 04:23:16;;;;;;;7.73;4.53;;;;;;;16.68;100.00;99435.66;5019028;28;20287;-58
2023/07/11 04:25:46;;;;;;;8.37;4.37;;;;;;;17.16;100.00;99528.91;5008388;28;20381;-59
2023/07/11 04:28:17;;;;;;;5.13;3.70;;;;;;;17.14;100.00;99517.56;5017676;28;20299;-62
2023/07/11 04:30:47;;;;;;;6.80;3.93;;;;;;;16.81;100.00;99484.19;5007051;28;20789;-65
2023/07/11 04:33:18;;;;;;;4.83;3.50;;;;;;;17.14;100.00;99524.66;5018509;28;20295;-60
2023/07/11 04:35:52;;;;;;;7.47;3.60;;;;;;;17.13;100.00;99526.44;5007866;28;20331;-59
2023/07/11 04:38:24;;;;;;;5.80;3.43;;;;;;;17.12;100.00;99529.16;5019131;28;20294;-60
2023/07/11 04:40:54;;;;;;;7.20;3.47;;;;;;;17.04;100.00;99524.31;5007060;28;20383;-64
2023/07/11 04:43:25;;;;;;;7.70;3.27;;;;;;;17.04;100.00;99526.94;5017539;28;20729;-65
2023/07/11 04:45:59;;;;;;;8.13;3.13;;;;;;;17.05;100.00;99526.03;5003716;28;20295;-64
2023/07/11 04:48:30;;;;;;;6.60;3.97;;;;;;;17.17;100.00;99533.28;5015728;28;20597;-63
2023/07/11 04:51:06;;;;;;;6.87;3.40;;;;;;;17.05;100.00;99528.66;5006673;28;20291;-60
2023/07/11 04:53:38;;;;;;;5.97;4.13;;;;;;;17.13;100.00;99537.00;5015718;28;20287;-63
2023/07/11 04:56:11;;;;;;;6.93;4.60;;;;;;;17.00;100.00;99541.25;5010542;28;20267;-63
2023/07/11 04:58:41;;;;;;;6.37;3.80;;;;;;;17.11;100.00;99559.13;5011977;28;21165;-60
2023/07/11 05:01:17;;;;;;;5.10;3.93;;;;;;;16.98;100.00;99558.97;5015964;28;20742;-64
2023/07/11 05:03:51;;;;;;;7.97;4.45;;;;;;;16.90;100.00;99545.31;5010861;28;20295;-64
2023/07/11 05:06:22;;;;;;;6.27;4.77;;;;;;;16.95;100.00;99564.41;5020520;28;20048;-62
2023/07/11 05:08:54;;;;;;;7.40;4.97;;;;;;;16.84;100.00;99566.75;5011503;28;20791;-59
2023/07/11 05:11:25;;;;;;;7.17;5.30;;;;;;;16.80;100.00;99566.91;5019458;28;20457;-62
2023/07/11 05:13:55;;;;;;;14.33;5.67;;;;;;;16.74;100.00;99567.19;5011603;28;20290;-63
2023/07/11 05:16:28;;;;;;;10.00;5.67;;;;;;;16.69;100.00;99569.22;5021980;28;20742;-59
2023/07/11 05:18:59;;;;;;;9.00;5.37;;;;;;;16.49;100.00;99551.81;5013641;28;20349;-62
2023/07/11 05:21:30;;;;;;;10.93;5.97;;;;;;;16.47;100.00;99564.22;5020822;28;20626;-63
2023/07/11 05:24:03;;;;;;;10.03;5.30;;;;;;;16.30;100.00;99570.38;5009188;28;20293;-62
2023/07/11 05:26:34;;;;;;;10.73;4.97;;;;;;;15.96;100.00;99536.97;5021987;28;20292;-59
2023/07/11 05:29:06;;;;;;;13.00;5.77;;;;;;;16.18;100.00;99579.75;5009988;28;20288;-61
2023/07/11 05:31:37;;;;;;;10.93;6.17;;;;;;;16.13;100.00;99573.00;5020160;28;20268;-60
2023/07/11 05:34:07;;;;;;;10.77;6.10;;;;;;;16.14;100.00;99577.34;5011698;28;20276;-64
2023/07/11 05:36:38;;;;;;;10.67;5.80;;;;;;;16.06;100.00;99584.78;5022389;28;20374;-58
2023/07/11 05:39:12;;;;;;;11.63;5.60;;;;;;;15.92;100.00;99567.84;5021184;28;20284;-64
2023/07/11 05:41:45;;;;;;;13.20;5.90;;;;;;;15.94;100.00;99576.53;5008133;28;20283;-57
2023/07/11 05:44:16;;;;;;;11.57;5.23;;;;;;;15.61;100.00;99543.94;5021009;28;20311;-61
2023/07/11 05:46:47;;;;;;;11.60;4.97;;;;;;;15.77;100.00;99568.63;5010305;28;20288;-64
2023/07/11 05:49:18;;;;;;;10.33;5.43;;;;;;;15.79;100.00;99566.78;5016447;28;20287;-62
2023/07/11 05:51:49;;;;;;;15.23;5.37;;;;;;;15.86;100.00;99568.19;5012973;28;20361;-61
2023/07/11 05:54:21;;;;;;;9.43;5.60;;;;;;;15.69;100.00;99533.88;5020263;28;20281;-62
2023/07/11 05:56:52;;;;;;;12.87;5.23;;;;;;;15.91;100.00;99573.22;5008594;28;20292;-62
2023/07/11 05:59:22;;;;;;;20.40;5.53;;;;;;;15.81;100.00;99570.19;5022753;28;20284;-62
2023/07/11 06:01:53;;;;;;;12.07;5.40;;;;;;;15.80;100.00;99563.22;5005800;28;20597;-57
2023/07/11 06:04:24;;;;;;;10.67;4.20;;;;;;;15.82;100.00;99566.59;5016661;28;20280;-58
2023/07/11 06:06:54;;;;;;;12.63;4.00;;;;;;;15.81;100.00;99569.34;5000728;28;20283;-65
2023/07/11 06:09:27;;;;;;;10.50;5.03;;;;;;;15.79;100.00;99556.22;5009581;28;20322;-65
2023/07/11 06:11:57;;;;;;;7.33;3.93;;;;;;;15.82;100.00;99563.97;5011677;28;20283;-59
2023/07/11 06:14:28;;;;;;;8.03;3.40;;;;;;;15.68;100.00;99526.91;5021852;28;20311;-64
2023/07/11 06:16:58;;;;;;;6.47;3.70;;;;;;;15.52;100.00;99506.59;5011793;28;20307;-63
2023/07/11 06:19:29;;;;;;;7.47;3.80;;;;;;;15.80;100.00;99557.97;5020875;28;21334;-62
2023/07/11 06:21:59;;;;;;;5.67;3.10;;;;;;;15.76;100.00;99561.66;5012149;28;20288;-61
2023/07/11 06:24:31;;;;;;;5.67;3.13;;;;;;;15.74;100.00;99563.50;5021821;28;20384;-61
2023/07/11 06:27:02;;;;;;;4.77;2.77;;;;;;;15.69;100.00;99560.22;5010544;28;20295;-64
2023/07/11 06:29:33;;;;;;;4.97;3.00;;;;;;;15.68;100.00;99555.88;5020904;28;20378;-63
2023/07/11 06:32:04;;;;;;;6.40;3.20;;;;;;;15.67;100.00;99556.78;5010383;28;20276;-57
2023/07/11 06:34:35;;;;;;;7.30;2.80;;;;;;;15.74;100.00;99558.25;5020663;28;20594;-61
2023/07/11 06:37:11;;;;;;;6.80;3.00;;;;;;;15.73;100.00;99561.81;5007790;28;20276;-62
2023/07/11 06:39:46;;;;;;;5.53;3.40;;;;;;;15.76;100.00;99561.66;5010587;28;20302;-63
2023/07/11 06:42:17;;;;;;;5.20;3.43;;;;;;;15.12;100.00;99475.22;5020893;28;20353;-61
2023/07/11 06:44:47;;;;;;;7.30;3.63;;;;;;;15.72;100.00;99560.09;5009605;28;20745;-63
2023/07/11 06:47:18;;;;;;;4.97;3.23;;;;;;;15.75;100.00;99559.97;5020536;28;20292;-60
2023/07/11 06:49:48;;;;;;;5.77;3.10;;;;;;;15.72;100.00;99575.91;5010336;28;20284;-63
2023/07/11 06:52:19;;;;;;;5.80;3.10;;;;;;;15.76;100.00;99559.03;5020779;28;20338;-64
2023/07/11 06:54:51;;;;;;;5.63;2.90;;;;;;;15.75;100.00;99570.50;5010205;28;20299;-62
2023/07/11 06:57:21;;;;;;;7.73;3.13;;;;;;;15.66;100.00;99566.47;5020889;28;20292;-61
2023/07/11 06:59:52;;;;;;;3.77;2.20;;;;;;;15.61;100.00;99562.38;5010418;28;20653;-63
2023/07/11 07:02:22;;;;;;;5.47;2.73;;;;;;;15.52;100.00;99569.81;5021242;28;20577;-62
2023/07/11 07:04:55;;;;;;;4.10;2.70;;;;;;;15.47;100.00;99561.25;5010988;28;20295;-64
2023/07/11 07:07:26;;;;;;;4.57;2.40;;;;;;;15.48;100.00;99562.97;5019838;28;20275;-65
2023/07/11 07:10:00;;;;;;;3.10;2.27;;;;;;;15.29;100.00;99546.31;5008544;28;20369;-60
2023/07/11 07:12:30;;;;;;;3.33;2.50;;;;;;;15.37;100.00;99569.66;5016483;28;20283;-62
2023/07/11 07:15:01;;;;;;;5.93;2.60;;;;;;;15.34;100.00;99565.38;5009295;28;20320;-62
2023/07/11 07:17:32;;;;;;;3.40;2.30;;;;;;;15.40;100.00;99578.28;5020260;28;20284;-64
2023/07/11 07:20:02;;;;;;;4.63;2.70;;;;;;;15.44;100.00;99587.72;5005501;28;20286;-59
2023/07/11 07:22:33;;;;;;;5.97;2.70;;;;;;;15.44;100.00;99592.97;5017775;28;20383;-63
2023/07/11 07:25:10;;;;;;;4.30;2.50;;;;;;;15.42;100.00;99572.91;5010000;28;20370;-63
2023/07/11 07:27:53;;;;;;;7.87;2.63;;;;;;;15.49;100.00;99585.72;5011159;28;20371;-62
2023/07/11 07:30:23;;;;;;;6.50;2.97;;;;;;;15.45;100.00;99573.66;5016056;28;20386;-63
2023/07/11 07:32:54;;;;;;;6.90;2.97;;;;;;;15.54;100.00;99583.72;4998749;28;20292;-58
2023/07/11 07:35:25;;;;;;;6.33;3.13;;;;;;;15.28;100.00;99544.63;5019999;28;20275;-58
2023/07/11 07:37:55;;;;;;;3.97;2.90;;;;;;;15.52;100.00;99590.88;5003713;28;20286;-63
2023/07/11 07:40:28;;;;;;;7.07;3.10;;;;;;;15.52;100.00;99596.13;5013870;28;20311;-60
2023/07/11 07:42:58;;;;;;;3.90;2.67;;;;;;;15.33;100.00;99555.78;5020816;28;20802;-62
2023/07/11 07:45:29;;;;;;;4.23;2.70;;;;;;;15.50;100.00;99592.72;5028251;28;20295;-61
2023/07/11 07:47:59;;;;;;;5.50;2.97;;;;;;;15.45;100.00;99594.72;5008610;28;20283;-62
2023/07/11 07:50:30;;;;;;;4.70;2.70;;;;;;;15.20;100.00;99552.00;5018687;28;20301;-59
2023/07/11 07:53:00;;;;;;;6.23;3.27;;;;;;;15.38;100.00;99582.75;5008832;28;20290;-62
2023/07/11 07:55:36;;;;;;;6.87;3.00;;;;;;;15.37;100.00;99596.81;5016431;28;20392;-63
2023/07/11 07:58:06;;;;;;;4.00;2.57;;;;;;;14.66;100.00;99484.34;5008124;28;20753;-64
2023/07/11 08:00:40;;;;;;;8.03;2.87;;;;;;;15.19;100.00;99581.91;5011061;28;20280;-59
2023/07/11 08:03:10;;;;;;;5.70;2.57;;;;;;;15.29;100.00;99589.28;5016747;28;20784;-59
2023/07/11 08:05:41;;;;;;;5.80;2.83;;;;;;;15.35;100.00;99585.53;5008044;28;20283;-63
2023/07/11 08:08:12;;;;;;;4.37;2.70;;;;;;;15.37;100.00;99585.44;5017274;28;21015;-63
2023/07/11 08:10:44;;;;;;;5.37;2.80;;;;;;;15.36;100.00;99587.22;5005726;28;20284;-62
2023/07/11 08:13:15;;;;;;;3.67;2.33;;;;;;;15.33;100.00;99584.75;5017918;28;20338;-62
2023/07/11 08:15:45;;;;;;;8.57;2.63;;;;;;;15.28;100.00;99586.75;5008162;28;20283;-60
2023/07/11 08:18:16;;;;;;;4.27;2.67;;;;;;;15.19;100.00;99576.63;5015447;28;20287;-62
2023/07/11 08:20:46;;;;;;;5.90;2.67;;;;;;;15.24;100.00;99595.69;5007970;28;20283;-58
2023/07/11 08:23:17;;;;;;;5.20;2.60;;;;;;;15.19;100.00;99605.59;5016529;28;20407;-61
2023/07/11 08:25:53;;;;;;;5.90;2.60;;;;;;;15.18;100.00;99617.03;5008305;28;20283;-63
2023/07/11 08:28:24;;;;;;;10.10;3.07;;;;;;;15.14;100.00;99604.94;5003620;28;20291;-61
2023/07/11 08:30:54;;;;;;;7.40;3.50;;;;;;;15.08;100.00;99601.66;5000046;28;20295;-61
2023/07/11 08:33:25;;;;;;;6.07;3.10;;;;;;;15.02;100.00;99616.88;5021103;28;20295;-64
2023/07/11 08:35:57;;;;;;;4.77;2.97;;;;;;;14.97;100.00;99614.44;5010189;28;20283;-62
2023/07/11 08:38:28;;;;;;;6.57;3.50;;;;;;;14.62;100.00;99572.16;5021704;28;20276;-65
2023/07/11 08:41:09;;;;;;;11.93;4.50;;;;;;;14.63;100.00;99583.53;5009730;28;20310;-60
2023/07/11 08:43:41;;;;;;;6.00;3.23;;;;;;;14.83;100.00;99622.09;5011575;28;20283;-61
2023/07/11 08:46:15;;;;;;;8.30;3.20;;;;;;;14.81;100.00;99618.69;5020546;28;20741;-62
2023/07/11 08:48:50;;;;;;;6.60;3.60;;;;;;;14.30;100.00;99538.50;5012791;28;20741;-63
2023/07/11 08:51:28;;;;;;;5.60;3.70;;;;;;;14.72;100.00;99603.31;5020905;28;20353;-65
2023/07/11 08:54:06;;;;;;;6.50;3.70;;;;;;;14.75;100.00;99614.56;5011575;28;20276;-63
2023/07/11 08:56:41;;;;;;;12.23;4.23;;;;;;;14.67;100.00;99612.22;5020484;28;20536;-61
2023/07/11 08:59:18;;;;;;;6.03;3.87;;;;;;;14.75;100.00;99618.94;5010799;28;20276;-64
2023/07/11 09:01:56;;;;;;;9.40;3.63;;;;;;;14.69;100.00;99620.06;5008360;28;20817;-63
2023/07/11 09:08:17;;;;;;;6.20;3.60;;;;;;;14.65;100.00;99635.13;4969871;28;20856;-64
2023/07/11 09:10:56;;;;;;;7.07;3.73;;;;;;;14.61;100.00;99627.44;5011941;28;21241;-64
2023/07/11 09:14:00;;;;;;;8.18;3.33;;;;;;;14.55;100.00;99639.09;5022582;28;20271;-65
2023/07/11 09:16:48;;;;;;;7.13;3.07;;;;;;;14.49;100.00;99634.03;5020040;28;20048;-59
2023/07/11 09:19:42;;;;;;;8.33;3.70;;;;;;;14.35;100.00;99625.88;5021968;28;20965;-65
2023/07/11 09:22:26;;;;;;;8.43;3.47;;;;;;;14.46;100.00;99645.53;5012666;28;20354;-64
2023/07/11 09:25:06;;;;;;;7.30;3.47;;;;;;;14.54;100.00;99647.03;5012912;28;20278;-64
2023/07/11 09:27:44;;;;;;;7.13;3.20;;;;;;;14.50;100.00;99641.00;5022015;28;20382;-63
2023/07/11 09:30:21;;;;;;;6.90;3.30;;;;;;;14.46;100.00;99644.69;5022910;28;20329;-61
2023/07/11 09:33:13;;;;;;;7.27;3.20;;;;;;;14.00;100.00;99562.53;5012070;28;20277;-65
2023/07/11 09:35:47;;;;;;;10.03;3.50;;;;;;;14.46;100.00;99645.53;5012072;28;20345;-65
2023/07/11 09:39:07;;;;;;;14.47;3.53;;;;;;;14.43;100.00;99645.69;5021899;28;20279;-65
2023/07/11 09:42:23;;;;;;;11.43;3.77;;;;;;;14.43;100.00;99644.81;5009034;28;20280;-64
2023/07/11 09:45:32;;;;;;;21.52;3.88;;;;;;;14.14;100.00;99598.72;5002567;28;20605;-62
2023/07/11 09:48:28;;;;;;;6.73;3.87;;;;;;;14.39;100.00;99645.88;5022050;28;20702;-63
2023/07/11 09:51:11;;;;;;;5.25;3.33;;;;;;;14.31;100.00;99653.22;5012321;28;20291;-62
2023/07/11 09:53:46;;;;;;;16.77;3.87;;;;;;;14.20;100.00;99648.38;5012131;28;20045;-65
2023/07/11 09:59:14;;;;;;;40.87;4.40;;;;;;;14.18;100.00;99661.59;4979294;28;20275;-65
2023/07/11 10:01:52;;;;;;;35.90;3.70;;;;;;;13.94;100.00;99631.06;4978885;28;20304;-65
2023/07/11 10:04:28;;;;;;;19.33;4.20;;;;;;;14.19;100.00;99652.78;5011056;28;20283;-65
2023/07/11 10:07:01;;;;;;;9.80;3.77;;;;;;;14.18;100.00;99651.09;5011581;28;20280;-61
2023/07/11 10:10:05;;;;;;;47.87;4.37;;;;;;;14.27;100.00;99670.03;5021318;28;20292;-62
2023/07/11 10:13:13;;;;;;;66.90;4.47;;;;;;;14.19;100.00;99663.31;5021063;28;20280;-63
2023/07/11 10:16:21;;;;;;;32.83;3.83;;;;;;;14.11;100.00;99665.41;5010791;28;20293;-65
2023/07/11 10:22:39;;;;;;;25.13;4.20;;;;;;;14.13;100.00;99663.56;5021103;28;20291;-65
2023/07/11 10:25:19;;;;;;;15.77;3.97;;;;;;;14.11;100.00;99660.16;5011449;28;20326;-60
2023/07/11 10:27:54;;;;;;;25.87;3.83;;;;;;;14.04;100.00;99648.16;5011738;28;20333;-62
2023/07/11 10:30:32;;;;;;;10.63;4.00;;;;;;;13.99;100.00;99645.72;5021280;28;20595;-64
2023/07/11 10:33:17;;;;;;;22.35;3.92;;;;;;;14.09;100.00;99664.59;5011665;28;20731;-64
2023/07/11 10:35:57;;;;;;;7.33;3.87;;;;;;;14.10;100.00;99668.06;5010058;28;20075;-65
2023/07/11 10:38:50;;;;;;;6.00;3.70;;;;;;;14.08;100.00;99676.03;5021193;28;20272;-57
2023/07/11 10:41:30;;;;;;;7.33;4.23;;;;;;;14.11;100.00;99670.66;5020990;28;20459;-58
2023/07/11 10:44:02;;;;;;;7.93;3.57;;;;;;;14.10;100.00;99684.69;5011094;28;20548;-62
2023/07/11 10:46:41;;;;;;;8.17;2.93;;;;;;;13.90;100.00;99667.09;5020831;28;20665;-63
2023/07/11 10:49:21;;;;;;;7.03;3.37;;;;;;;13.99;100.00;99676.41;5010869;28;20292;-62
2023/07/11 10:51:59;;;;;;;5.85;3.53;;;;;;;13.70;100.00;99639.00;5003256;28;20317;-65
2023/07/11 10:54:46;;;;;;;5.43;3.60;;;;;;;13.92;100.00;99674.91;5021212;28;20151;-62
2023/07/11 10:57:36;;;;;;;6.80;3.00;;;;;;;13.91;100.00;99662.72;5011216;28;20045;-65
2023/07/11 11:00:20;;;;;;;5.83;2.70;;;;;;;13.93;100.00;99672.25;5011190;28;20809;-64
2023/07/11 11:03:04;;;;;;;5.97;2.37;;;;;;;13.92;100.00;99674.91;5011035;28;20287;-63
2023/07/11 11:05:48;;;;;;;4.05;2.40;;;;;;;13.88;100.00;99668.06;5021160;28;20591;-63
2023/07/11 11:08:26;;;;;;;6.30;2.23;;;;;;;13.85;100.00;99668.19;5005378;28;20046;-66
2023/07/11 11:11:08;;;;;;;5.37;2.17;;;;;;;13.91;100.00;99681.09;4989833;28;20288;-64
2023/07/11 11:13:48;;;;;;;3.07;2.03;;;;;;;13.91;100.00;99688.97;4991938;28;20315;-61
2023/07/11 11:16:31;;;;;;;2.92;2.05;;;;;;;13.91;100.00;99688.97;5000976;28;20303;-63
2023/07/11 11:19:15;;;;;;;4.77;1.80;;;;;;;13.37;100.00;99600.00;4991827;28;20057;-65
2023/07/11 11:21:57;;;;;;;4.32;1.83;;;;;;;13.84;100.00;99675.22;4989754;28;20596;-61
2023/07/11 11:24:44;;;;;;;3.33;1.90;;;;;;;13.85;100.00;99678.69;5001391;28;20045;-66
2023/07/11 11:27:37;;;;;;;5.05;2.53;;;;;;;13.78;100.00;99657.94;4989435;28;20284;-60
2023/07/11 11:30:21;;;;;;;4.07;1.80;;;;;;;13.81;100.00;99672.72;4990151;28;20087;-64
2023/07/11 11:33:01;;;;;;;3.50;1.60;;;;;;;13.89;100.00;99683.78;4990043;28;20049;-61
2023/07/11 11:35:43;;;;;;;3.87;1.60;;;;;;;13.62;100.00;99638.44;5001109;28;20719;-64
2023/07/11 11:38:35;;;;;;;2.33;1.60;;;;;;;13.92;100.00;99685.44;4990526;28;20284;-65
2023/07/11 11:41:16;;;;;;;4.80;1.77;;;;;;;13.97;100.00;99680.84;4991160;28;20369;-60
2023/07/11 11:43:53;;;;;;;6.17;1.77;;;;;;;13.94;100.00;99683.59;4989387;28;20292;-58
2023/07/11 11:46:27;;;;;;;;;;;;;;;13.88;100.00;99674.19;5001240;28;20291;-60
2023/07/11 11:49:08;;;;;;;6.17;1.73;;;;;;;13.87;100.00;99674.25;4990859;28;20043;-64
2023/07/11 11:52:00;;;;;;;3.30;1.40;;;;;;;13.89;100.00;99685.56;4990325;28;20304;-59
2023/07/11 11:54:39;;;;;;;3.00;1.37;;;;;;;13.85;100.00;99686.56;5001257;28;20603;-64
2023/07/11 11:57:24;;;;;;;2.20;1.50;;;;;;;13.59;100.00;99647.28;4989262;28;20750;-65
2023/07/11 12:00:02;;;;;;;1.77;1.50;;;;;;;13.81;100.00;99691.97;4983114;28;20308;-61
2023/07/11 12:02:39;;;;;;;3.97;1.60;;;;;;;13.51;100.00;99627.53;5001231;28;20342;-65
2023/07/11 12:05:25;;;;;;;1.60;1.33;;;;;;;13.87;100.00;99693.47;4988067;28;20287;-64
2023/07/11 12:08:25;;;;;;;6.43;1.17;;;;;;;13.84;100.00;99693.59;4989625;28;20639;-60